sensor_id;sensor_type;location;lat;lon;timestamp;P1;durP1;ratioP1;P2;durP2;ratioP2
44270;SDS011;29963;44.594;11.368;2023-01-24T00:01:22;5.95;;;4.68;;
44270;SDS011;29963;44.594;11.368;2023-01-24T00:03:48;10.02;;;6.28;;
44270;SDS011;29963;44.594;11.368;2023-01-24T00:06:14;7.82;;;4.60;;
44270;SDS011;29963;44.594;11.368;2023-01-24T00:08:40;7.70;;;5.65;;
44270;SDS011;29963;44.594;11.368;2023-01-24T00:11:07;6.13;;;5.53;;
44270;SDS011;29963;44.594;11.368;2023-01-24T00:13:35;5.78;;;5.18;;
44270;SDS011;29963;44.594;11.368;2023-01-24T00:16:22;6.10;;;5.15;;
44270;SDS011;29963;44.594;11.368;2023-01-24T00:18:47;9.13;;;5.22;;
44270;SDS011;29963;44.594;11.368;2023-01-24T00:21:15;6.22;;;5.60;;
44270;SDS011;29963;44.594;11.368;2023-01-24T00:23:46;6.88;;;5.75;;
44270;SDS011;29963;44.594;11.368;2023-01-24T00:26:13;6.45;;;5.28;;
44270;SDS011;29963;44.594;11.368;2023-01-24T00:28:39;5.97;;;5.38;;
44270;SDS011;29963;44.594;11.368;2023-01-24T00:31:05;6.05;;;5.45;;
44270;SDS011;29963;44.594;11.368;2023-01-24T00:33:31;5.93;;;5.25;;
44270;SDS011;29963;44.594;11.368;2023-01-24T00:35:58;7.22;;;5.38;;
44270;SDS011;29963;44.594;11.368;2023-01-24T00:38:24;6.35;;;5.05;;
44270;SDS011;29963;44.594;11.368;2023-01-24T00:40:50;7.20;;;5.85;;
44270;SDS011;29963;44.594;11.368;2023-01-24T00:43:15;5.50;;;4.88;;
44270;SDS011;29963;44.594;11.368;2023-01-24T00:45:43;7.75;;;5.53;;
44270;SDS011;29963;44.594;11.368;2023-01-24T00:48:10;5.75;;;5.05;;
44270;SDS011;29963;44.594;11.368;2023-01-24T00:50:35;6.43;;;5.65;;
44270;SDS011;29963;44.594;11.368;2023-01-24T00:53:01;6.22;;;5.57;;
44270;SDS011;29963;44.594;11.368;2023-01-24T00:55:27;6.88;;;5.82;;
44270;SDS011;29963;44.594;11.368;2023-01-24T00:57:53;6.63;;;5.95;;
44270;SDS011;29963;44.594;11.368;2023-01-24T01:00:19;8.23;;;5.80;;
44270;SDS011;29963;44.594;11.368;2023-01-24T01:02:46;7.35;;;5.60;;
44270;SDS011;29963;44.594;11.368;2023-01-24T01:05:13;5.55;;;5.05;;
44270;SDS011;29963;44.594;11.368;2023-01-24T01:07:39;5.97;;;5.38;;
44270;SDS011;29963;44.594;11.368;2023-01-24T01:10:04;8.68;;;5.90;;
44270;SDS011;29963;44.594;11.368;2023-01-24T01:12:30;7.93;;;5.32;;
44270;SDS011;29963;44.594;11.368;2023-01-24T01:14:56;5.55;;;4.90;;
44270;SDS011;29963;44.594;11.368;2023-01-24T01:17:22;5.55;;;5.03;;
44270;SDS011;29963;44.594;11.368;2023-01-24T01:19:51;5.90;;;5.30;;
44270;SDS011;29963;44.594;11.368;2023-01-24T01:22:17;5.18;;;4.68;;
44270;SDS011;29963;44.594;11.368;2023-01-24T01:24:43;6.40;;;5.25;;
44270;SDS011;29963;44.594;11.368;2023-01-24T01:27:09;5.35;;;4.68;;
44270;SDS011;29963;44.594;11.368;2023-01-24T01:29:35;6.70;;;5.55;;
44270;SDS011;29963;44.594;11.368;2023-01-24T01:32:00;5.85;;;5.05;;
44270;SDS011;29963;44.594;11.368;2023-01-24T01:34:26;6.00;;;5.43;;
44270;SDS011;29963;44.594;11.368;2023-01-24T01:36:52;6.60;;;5.07;;
44270;SDS011;29963;44.594;11.368;2023-01-24T01:39:17;6.10;;;5.50;;
44270;SDS011;29963;44.594;11.368;2023-01-24T01:41:43;5.32;;;4.70;;
44270;SDS011;29963;44.594;11.368;2023-01-24T01:44:19;6.28;;;5.07;;
44270;SDS011;29963;44.594;11.368;2023-01-24T01:47:03;6.32;;;5.30;;
44270;SDS011;29963;44.594;11.368;2023-01-24T01:50:14;6.45;;;5.22;;
44270;SDS011;29963;44.594;11.368;2023-01-24T01:52:44;5.63;;;4.88;;
44270;SDS011;29963;44.594;11.368;2023-01-24T01:55:14;6.18;;;5.57;;
44270;SDS011;29963;44.594;11.368;2023-01-24T01:57:42;5.97;;;5.38;;
44270;SDS011;29963;44.594;11.368;2023-01-24T02:02:40;6.47;;;5.40;;
44270;SDS011;29963;44.594;11.368;2023-01-24T02:05:10;5.78;;;5.18;;
44270;SDS011;29963;44.594;11.368;2023-01-24T02:10:09;8.18;;;4.88;;
44270;SDS011;29963;44.594;11.368;2023-01-24T02:12:39;7.28;;;5.05;;
44270;SDS011;29963;44.594;11.368;2023-01-24T02:15:10;5.60;;;5.05;;
44270;SDS011;29963;44.594;11.368;2023-01-24T02:18:00;5.78;;;5.18;;
44270;SDS011;29963;44.594;11.368;2023-01-24T02:28:19;6.22;;;4.85;;
44270;SDS011;29963;44.594;11.368;2023-01-24T02:30:45;6.10;;;5.50;;
44270;SDS011;29963;44.594;11.368;2023-01-24T02:33:16;5.93;;;5.40;;
44270;SDS011;29963;44.594;11.368;2023-01-24T02:35:43;5.93;;;5.32;;
44270;SDS011;29963;44.594;11.368;2023-01-24T02:38:20;5.72;;;5.20;;
44270;SDS011;29963;44.594;11.368;2023-01-24T02:40:51;7.50;;;5.45;;
44270;SDS011;29963;44.594;11.368;2023-01-24T02:43:20;7.05;;;5.82;;
44270;SDS011;29963;44.594;11.368;2023-01-24T02:45:50;5.93;;;5.25;;
44270;SDS011;29963;44.594;11.368;2023-01-24T02:48:16;5.88;;;5.28;;
44270;SDS011;29963;44.594;11.368;2023-01-24T02:50:42;5.60;;;4.97;;
44270;SDS011;29963;44.594;11.368;2023-01-24T02:53:26;7.28;;;5.30;;
44270;SDS011;29963;44.594;11.368;2023-01-24T02:55:54;6.82;;;5.05;;
44270;SDS011;29963;44.594;11.368;2023-01-24T02:58:40;5.20;;;4.70;;
44270;SDS011;29963;44.594;11.368;2023-01-24T03:01:05;5.43;;;4.93;;
44270;SDS011;29963;44.594;11.368;2023-01-24T03:03:31;5.50;;;4.90;;
44270;SDS011;29963;44.594;11.368;2023-01-24T03:05:56;6.07;;;5.20;;
44270;SDS011;29963;44.594;11.368;2023-01-24T03:08:26;5.72;;;5.18;;
44270;SDS011;29963;44.594;11.368;2023-01-24T03:10:53;6.38;;;5.68;;
44270;SDS011;29963;44.594;11.368;2023-01-24T03:13:19;7.60;;;5.18;;
44270;SDS011;29963;44.594;11.368;2023-01-24T03:16:04;7.05;;;5.85;;
44270;SDS011;29963;44.594;11.368;2023-01-24T03:18:49;5.82;;;5.25;;
44270;SDS011;29963;44.594;11.368;2023-01-24T03:21:34;6.03;;;5.47;;
44270;SDS011;29963;44.594;11.368;2023-01-24T03:24:18;5.75;;;5.10;;
44270;SDS011;29963;44.594;11.368;2023-01-24T03:27:02;6.07;;;5.47;;
44270;SDS011;29963;44.594;11.368;2023-01-24T03:29:47;6.75;;;5.90;;
44270;SDS011;29963;44.594;11.368;2023-01-24T03:32:31;7.60;;;6.38;;
44270;SDS011;29963;44.594;11.368;2023-01-24T03:35:15;6.30;;;5.57;;
44270;SDS011;29963;44.594;11.368;2023-01-24T03:37:41;7.50;;;6.07;;
44270;SDS011;29963;44.594;11.368;2023-01-24T03:40:25;6.93;;;5.40;;
44270;SDS011;29963;44.594;11.368;2023-01-24T03:42:52;5.82;;;5.22;;
44270;SDS011;29963;44.594;11.368;2023-01-24T03:45:18;6.38;;;5.78;;
44270;SDS011;29963;44.594;11.368;2023-01-24T03:47:54;6.30;;;5.70;;
44270;SDS011;29963;44.594;11.368;2023-01-24T03:50:25;6.90;;;5.63;;
44270;SDS011;29963;44.594;11.368;2023-01-24T03:53:11;6.68;;;6.07;;
44270;SDS011;29963;44.594;11.368;2023-01-24T03:55:38;6.72;;;6.03;;
44270;SDS011;29963;44.594;11.368;2023-01-24T03:58:04;6.68;;;6.07;;
44270;SDS011;29963;44.594;11.368;2023-01-24T04:00:31;6.38;;;5.70;;
44270;SDS011;29963;44.594;11.368;2023-01-24T04:02:57;7.10;;;6.05;;
44270;SDS011;29963;44.594;11.368;2023-01-24T04:05:23;6.57;;;5.88;;
44270;SDS011;29963;44.594;11.368;2023-01-24T04:07:49;5.78;;;5.28;;
44270;SDS011;29963;44.594;11.368;2023-01-24T04:10:15;7.47;;;6.00;;
44270;SDS011;29963;44.594;11.368;2023-01-24T04:12:41;5.90;;;5.30;;
44270;SDS011;29963;44.594;11.368;2023-01-24T04:15:08;6.93;;;5.72;;
44270;SDS011;29963;44.594;11.368;2023-01-24T04:17:38;5.75;;;5.25;;
44270;SDS011;29963;44.594;11.368;2023-01-24T04:20:04;6.55;;;5.82;;
44270;SDS011;29963;44.594;11.368;2023-01-24T04:22:30;6.25;;;5.47;;
44270;SDS011;29963;44.594;11.368;2023-01-24T04:24:55;6.25;;;5.63;;
44270;SDS011;29963;44.594;11.368;2023-01-24T04:27:21;5.97;;;5.38;;
44270;SDS011;29963;44.594;11.368;2023-01-24T04:29:47;8.07;;;5.05;;
44270;SDS011;29963;44.594;11.368;2023-01-24T04:32:12;5.72;;;4.78;;
44270;SDS011;29963;44.594;11.368;2023-01-24T04:34:39;4.97;;;4.53;;
44270;SDS011;29963;44.594;11.368;2023-01-24T04:37:04;7.07;;;5.10;;
44270;SDS011;29963;44.594;11.368;2023-01-24T04:39:30;6.93;;;5.90;;
44270;SDS011;29963;44.594;11.368;2023-01-24T04:41:56;5.05;;;4.55;;
44270;SDS011;29963;44.594;11.368;2023-01-24T04:44:22;5.10;;;4.57;;
44270;SDS011;29963;44.594;11.368;2023-01-24T04:46:50;5.45;;;4.97;;
44270;SDS011;29963;44.594;11.368;2023-01-24T04:49:16;6.82;;;4.60;;
44270;SDS011;29963;44.594;11.368;2023-01-24T04:51:42;6.70;;;4.53;;
44270;SDS011;29963;44.594;11.368;2023-01-24T04:54:11;4.90;;;4.38;;
44270;SDS011;29963;44.594;11.368;2023-01-24T04:56:37;5.45;;;4.72;;
44270;SDS011;29963;44.594;11.368;2023-01-24T04:59:03;4.95;;;4.45;;
44270;SDS011;29963;44.594;11.368;2023-01-24T05:01:29;4.40;;;4.00;;
44270;SDS011;29963;44.594;11.368;2023-01-24T05:03:55;4.38;;;3.97;;
44270;SDS011;29963;44.594;11.368;2023-01-24T05:06:27;4.50;;;4.10;;
44270;SDS011;29963;44.594;11.368;2023-01-24T05:08:54;3.80;;;3.50;;
44270;SDS011;29963;44.594;11.368;2023-01-24T05:11:21;4.97;;;4.32;;
44270;SDS011;29963;44.594;11.368;2023-01-24T05:13:48;4.88;;;4.00;;
44270;SDS011;29963;44.594;11.368;2023-01-24T05:16:14;5.78;;;5.00;;
44270;SDS011;29963;44.594;11.368;2023-01-24T05:18:40;5.40;;;4.20;;
44270;SDS011;29963;44.594;11.368;2023-01-24T05:21:12;5.07;;;4.40;;
44270;SDS011;29963;44.594;11.368;2023-01-24T05:23:40;4.82;;;4.15;;
44270;SDS011;29963;44.594;11.368;2023-01-24T05:26:06;4.95;;;4.47;;
44270;SDS011;29963;44.594;11.368;2023-01-24T05:28:32;4.85;;;4.28;;
44270;SDS011;29963;44.594;11.368;2023-01-24T05:30:58;5.05;;;4.55;;
44270;SDS011;29963;44.594;11.368;2023-01-24T05:33:25;7.45;;;5.32;;
44270;SDS011;29963;44.594;11.368;2023-01-24T05:36:00;4.88;;;4.43;;
44270;SDS011;29963;44.594;11.368;2023-01-24T05:38:28;5.93;;;4.95;;
44270;SDS011;29963;44.594;11.368;2023-01-24T05:40:53;7.10;;;6.22;;
44270;SDS011;29963;44.594;11.368;2023-01-24T05:43:23;7.43;;;5.35;;
44270;SDS011;29963;44.594;11.368;2023-01-24T05:45:49;6.35;;;5.65;;
44270;SDS011;29963;44.594;11.368;2023-01-24T05:48:14;6.05;;;5.45;;
44270;SDS011;29963;44.594;11.368;2023-01-24T05:50:40;6.20;;;5.60;;
44270;SDS011;29963;44.594;11.368;2023-01-24T05:53:05;6.90;;;5.43;;
44270;SDS011;29963;44.594;11.368;2023-01-24T05:55:31;7.35;;;6.00;;
44270;SDS011;29963;44.594;11.368;2023-01-24T05:58:00;7.97;;;6.47;;
44270;SDS011;29963;44.594;11.368;2023-01-24T06:00:25;9.65;;;6.25;;
44270;SDS011;29963;44.594;11.368;2023-01-24T06:02:51;9.55;;;6.75;;
44270;SDS011;29963;44.594;11.368;2023-01-24T06:05:17;6.75;;;6.15;;
44270;SDS011;29963;44.594;11.368;2023-01-24T06:07:43;6.70;;;6.10;;
44270;SDS011;29963;44.594;11.368;2023-01-24T06:10:09;7.63;;;6.80;;
44270;SDS011;29963;44.594;11.368;2023-01-24T06:12:35;10.27;;;7.03;;
44270;SDS011;29963;44.594;11.368;2023-01-24T06:15:00;8.35;;;6.47;;
44270;SDS011;29963;44.594;11.368;2023-01-24T06:17:26;9.88;;;6.30;;
44270;SDS011;29963;44.594;11.368;2023-01-24T06:19:52;7.28;;;6.18;;
44270;SDS011;29963;44.594;11.368;2023-01-24T06:23:02;9.30;;;6.57;;
44270;SDS011;29963;44.594;11.368;2023-01-24T06:25:12;6.30;;;5.70;;
44270;SDS011;29963;44.594;11.368;2023-01-24T06:27:44;7.68;;;6.03;;
44270;SDS011;29963;44.594;11.368;2023-01-24T06:30:11;9.27;;;6.55;;
44270;SDS011;29963;44.594;11.368;2023-01-24T06:38:17;8.25;;;7.35;;
44270;SDS011;29963;44.594;11.368;2023-01-24T06:40:45;9.60;;;7.90;;
44270;SDS011;29963;44.594;11.368;2023-01-24T06:43:11;11.45;;;10.25;;
44270;SDS011;29963;44.594;11.368;2023-01-24T06:45:37;17.05;;;13.55;;
44270;SDS011;29963;44.594;11.368;2023-01-24T06:48:03;15.10;;;9.98;;
44270;SDS011;29963;44.594;11.368;2023-01-24T06:50:29;13.40;;;10.55;;
44270;SDS011;29963;44.594;11.368;2023-01-24T06:52:56;17.48;;;11.07;;
44270;SDS011;29963;44.594;11.368;2023-01-24T06:55:22;16.17;;;11.70;;
44270;SDS011;29963;44.594;11.368;2023-01-24T06:57:54;22.50;;;10.65;;
44270;SDS011;29963;44.594;11.368;2023-01-24T07:00:21;18.23;;;10.63;;
44270;SDS011;29963;44.594;11.368;2023-01-24T07:02:47;18.20;;;12.30;;
44270;SDS011;29963;44.594;11.368;2023-01-24T07:05:12;27.40;;;14.65;;
44270;SDS011;29963;44.594;11.368;2023-01-24T07:07:38;21.65;;;11.73;;
44270;SDS011;29963;44.594;11.368;2023-01-24T07:10:04;20.60;;;11.75;;
44270;SDS011;29963;44.594;11.368;2023-01-24T07:12:30;25.42;;;11.27;;
44270;SDS011;29963;44.594;11.368;2023-01-24T07:14:56;14.50;;;10.32;;
44270;SDS011;29963;44.594;11.368;2023-01-24T07:17:21;12.10;;;10.70;;
44270;SDS011;29963;44.594;11.368;2023-01-24T07:19:47;16.77;;;12.07;;
44270;SDS011;29963;44.594;11.368;2023-01-24T07:22:13;18.33;;;12.18;;
44270;SDS011;29963;44.594;11.368;2023-01-24T07:24:39;14.82;;;11.75;;
44270;SDS011;29963;44.594;11.368;2023-01-24T07:27:07;11.93;;;10.40;;
44270;SDS011;29963;44.594;11.368;2023-01-24T07:29:35;12.95;;;10.32;;
44270;SDS011;29963;44.594;11.368;2023-01-24T07:32:01;12.20;;;10.52;;
44270;SDS011;29963;44.594;11.368;2023-01-24T07:34:27;16.63;;;12.75;;
44270;SDS011;29963;44.594;11.368;2023-01-24T07:36:55;14.88;;;13.02;;
44270;SDS011;29963;44.594;11.368;2023-01-24T07:39:21;17.48;;;14.32;;
44270;SDS011;29963;44.594;11.368;2023-01-24T07:41:47;14.10;;;12.40;;
44270;SDS011;29963;44.594;11.368;2023-01-24T07:44:13;14.20;;;11.93;;
44270;SDS011;29963;44.594;11.368;2023-01-24T07:46:38;18.95;;;13.90;;
44270;SDS011;29963;44.594;11.368;2023-01-24T07:49:04;16.25;;;13.32;;
44270;SDS011;29963;44.594;11.368;2023-01-24T07:51:30;16.85;;;13.65;;
44270;SDS011;29963;44.594;11.368;2023-01-24T07:53:55;15.88;;;13.35;;
44270;SDS011;29963;44.594;11.368;2023-01-24T07:56:21;17.65;;;13.95;;
44270;SDS011;29963;44.594;11.368;2023-01-24T07:58:47;15.40;;;13.15;;
44270;SDS011;29963;44.594;11.368;2023-01-24T08:01:22;21.05;;;14.45;;
44270;SDS011;29963;44.594;11.368;2023-01-24T08:03:48;18.77;;;14.05;;
44270;SDS011;29963;44.594;11.368;2023-01-24T08:06:14;14.95;;;12.57;;
44270;SDS011;29963;44.594;11.368;2023-01-24T08:08:40;15.70;;;13.63;;
44270;SDS011;29963;44.594;11.368;2023-01-24T08:11:06;16.48;;;14.65;;
44270;SDS011;29963;44.594;11.368;2023-01-24T08:13:35;22.20;;;14.98;;
44270;SDS011;29963;44.594;11.368;2023-01-24T08:16:02;15.60;;;13.75;;
44270;SDS011;29963;44.594;11.368;2023-01-24T08:18:28;16.67;;;14.35;;
44270;SDS011;29963;44.594;11.368;2023-01-24T08:20:55;16.30;;;14.65;;
44270;SDS011;29963;44.594;11.368;2023-01-24T08:23:21;18.27;;;14.50;;
44270;SDS011;29963;44.594;11.368;2023-01-24T08:25:46;17.70;;;14.30;;
44270;SDS011;29963;44.594;11.368;2023-01-24T08:28:12;16.85;;;14.23;;
44270;SDS011;29963;44.594;11.368;2023-01-24T08:30:38;17.27;;;14.98;;
44270;SDS011;29963;44.594;11.368;2023-01-24T08:33:04;17.98;;;16.20;;
44270;SDS011;29963;44.594;11.368;2023-01-24T08:35:31;17.58;;;15.73;;
44270;SDS011;29963;44.594;11.368;2023-01-24T08:37:57;17.65;;;15.85;;
44270;SDS011;29963;44.594;11.368;2023-01-24T08:40:23;17.80;;;15.90;;
44270;SDS011;29963;44.594;11.368;2023-01-24T08:42:49;17.40;;;15.55;;
44270;SDS011;29963;44.594;11.368;2023-01-24T08:45:15;17.95;;;15.82;;
44270;SDS011;29963;44.594;11.368;2023-01-24T08:47:41;18.83;;;16.83;;
44270;SDS011;29963;44.594;11.368;2023-01-24T08:50:09;20.17;;;15.75;;
44270;SDS011;29963;44.594;11.368;2023-01-24T08:52:35;21.05;;;17.45;;
44270;SDS011;29963;44.594;11.368;2023-01-24T08:55:01;20.20;;;16.98;;
44270;SDS011;29963;44.594;11.368;2023-01-24T08:57:26;23.45;;;18.25;;
44270;SDS011;29963;44.594;11.368;2023-01-24T08:59:52;19.05;;;17.15;;
44270;SDS011;29963;44.594;11.368;2023-01-24T09:02:18;19.55;;;17.08;;
44270;SDS011;29963;44.594;11.368;2023-01-24T09:04:44;18.33;;;16.05;;
44270;SDS011;29963;44.594;11.368;2023-01-24T09:07:12;20.75;;;17.85;;
44270;SDS011;29963;44.594;11.368;2023-01-24T09:09:38;21.15;;;17.30;;
44270;SDS011;29963;44.594;11.368;2023-01-24T09:12:04;24.48;;;17.77;;
44270;SDS011;29963;44.594;11.368;2023-01-24T09:14:30;20.55;;;17.63;;
44270;SDS011;29963;44.594;11.368;2023-01-24T09:16:56;19.85;;;17.55;;
44270;SDS011;29963;44.594;11.368;2023-01-24T09:19:24;20.02;;;17.90;;
44270;SDS011;29963;44.594;11.368;2023-01-24T09:21:51;20.33;;;18.15;;
44270;SDS011;29963;44.594;11.368;2023-01-24T09:24:20;20.10;;;16.77;;
44270;SDS011;29963;44.594;11.368;2023-01-24T09:26:46;21.63;;;18.52;;
44270;SDS011;29963;44.594;11.368;2023-01-24T09:29:11;23.60;;;19.63;;
44270;SDS011;29963;44.594;11.368;2023-01-24T09:31:37;24.75;;;19.70;;
44270;SDS011;29963;44.594;11.368;2023-01-24T09:34:03;23.85;;;19.17;;
44270;SDS011;29963;44.594;11.368;2023-01-24T09:36:28;27.20;;;18.90;;
44270;SDS011;29963;44.594;11.368;2023-01-24T09:38:54;25.02;;;19.30;;
44270;SDS011;29963;44.594;11.368;2023-01-24T09:43:59;21.35;;;19.15;;
44270;SDS011;29963;44.594;11.368;2023-01-24T09:51:35;20.88;;;18.58;;
44270;SDS011;29963;44.594;11.368;2023-01-24T09:54:04;19.33;;;16.67;;
44270;SDS011;29963;44.594;11.368;2023-01-24T09:56:34;20.83;;;16.40;;
44270;SDS011;29963;44.594;11.368;2023-01-24T09:59:11;22.45;;;16.50;;
44270;SDS011;29963;44.594;11.368;2023-01-24T10:01:46;18.92;;;16.83;;
44270;SDS011;29963;44.594;11.368;2023-01-24T10:04:20;18.70;;;14.98;;
44270;SDS011;29963;44.594;11.368;2023-01-24T10:07:10;18.02;;;15.95;;
44270;SDS011;29963;44.594;11.368;2023-01-24T10:18:38;23.25;;;18.95;;
44270;SDS011;29963;44.594;11.368;2023-01-24T10:23:39;22.45;;;17.60;;
44270;SDS011;29963;44.594;11.368;2023-01-24T10:28:49;25.48;;;20.27;;
44270;SDS011;29963;44.594;11.368;2023-01-24T10:33:58;27.40;;;22.25;;
44270;SDS011;29963;44.594;11.368;2023-01-24T10:36:51;22.42;;;20.08;;
44270;SDS011;29963;44.594;11.368;2023-01-24T10:39:24;25.30;;;20.02;;
44270;SDS011;29963;44.594;11.368;2023-01-24T10:41:54;28.63;;;21.90;;
44270;SDS011;29963;44.594;11.368;2023-01-24T10:44:23;26.80;;;20.77;;
44270;SDS011;29963;44.594;11.368;2023-01-24T10:50:00;25.27;;;21.25;;
44270;SDS011;29963;44.594;11.368;2023-01-24T10:52:29;26.42;;;22.08;;
44270;SDS011;29963;44.594;11.368;2023-01-24T10:54:55;26.60;;;23.73;;
44270;SDS011;29963;44.594;11.368;2023-01-24T11:00:44;22.95;;;18.85;;
44270;SDS011;29963;44.594;11.368;2023-01-24T11:02:59;20.40;;;18.25;;
44270;SDS011;29963;44.594;11.368;2023-01-24T11:05:37;26.92;;;18.55;;
44270;SDS011;29963;44.594;11.368;2023-01-24T11:08:26;20.48;;;17.42;;
44270;SDS011;29963;44.594;11.368;2023-01-24T11:10:58;25.48;;;19.15;;
44270;SDS011;29963;44.594;11.368;2023-01-24T11:13:32;21.35;;;16.73;;
44270;SDS011;29963;44.594;11.368;2023-01-24T11:16:00;22.88;;;18.92;;
44270;SDS011;29963;44.594;11.368;2023-01-24T11:18:47;20.55;;;18.23;;
44270;SDS011;29963;44.594;11.368;2023-01-24T11:21:28;24.02;;;19.88;;
44270;SDS011;29963;44.594;11.368;2023-01-24T11:24:13;23.15;;;20.10;;
44270;SDS011;29963;44.594;11.368;2023-01-24T11:26:55;18.17;;;15.38;;
44270;SDS011;29963;44.594;11.368;2023-01-24T11:29:27;21.65;;;16.17;;
44270;SDS011;29963;44.594;11.368;2023-01-24T11:32:14;19.45;;;16.38;;
44270;SDS011;29963;44.594;11.368;2023-01-24T11:34:50;22.40;;;15.13;;
44270;SDS011;29963;44.594;11.368;2023-01-24T11:40:24;20.27;;;16.75;;
44270;SDS011;29963;44.594;11.368;2023-01-24T11:46:08;32.17;;;24.50;;
44270;SDS011;29963;44.594;11.368;2023-01-24T11:54:24;29.45;;;21.50;;
44270;SDS011;29963;44.594;11.368;2023-01-24T11:57:02;26.77;;;21.92;;
44270;SDS011;29963;44.594;11.368;2023-01-24T12:11:25;24.00;;;18.30;;
44270;SDS011;29963;44.594;11.368;2023-01-24T12:14:12;20.25;;;18.15;;
44270;SDS011;29963;44.594;11.368;2023-01-24T12:22:19;19.20;;;15.73;;
44270;SDS011;29963;44.594;11.368;2023-01-24T12:24:50;19.45;;;16.08;;
44270;SDS011;29963;44.594;11.368;2023-01-24T12:27:24;20.23;;;15.80;;
44270;SDS011;29963;44.594;11.368;2023-01-24T12:30:02;20.67;;;16.25;;
44270;SDS011;29963;44.594;11.368;2023-01-24T12:32:44;19.10;;;17.08;;
44270;SDS011;29963;44.594;11.368;2023-01-24T12:35:28;21.73;;;15.25;;
44270;SDS011;29963;44.594;11.368;2023-01-24T12:40:38;18.80;;;14.32;;
44270;SDS011;29963;44.594;11.368;2023-01-24T12:46:08;14.73;;;13.07;;
44270;SDS011;29963;44.594;11.368;2023-01-24T12:51:30;16.65;;;12.95;;
44270;SDS011;29963;44.594;11.368;2023-01-24T12:54:06;16.45;;;13.50;;
44270;SDS011;29963;44.594;11.368;2023-01-24T12:59:38;11.73;;;10.52;;
44270;SDS011;29963;44.594;11.368;2023-01-24T13:07:58;12.00;;;8.88;;
44270;SDS011;29963;44.594;11.368;2023-01-24T13:13:13;13.90;;;10.25;;
44270;SDS011;29963;44.594;11.368;2023-01-24T13:16:22;12.38;;;10.73;;
44270;SDS011;29963;44.594;11.368;2023-01-24T13:19:16;10.75;;;9.65;;
44270;SDS011;29963;44.594;11.368;2023-01-24T13:32:34;10.68;;;9.63;;
44270;SDS011;29963;44.594;11.368;2023-01-24T13:35:10;11.75;;;10.55;;
44270;SDS011;29963;44.594;11.368;2023-01-24T13:37:48;14.57;;;11.50;;
44270;SDS011;29963;44.594;11.368;2023-01-24T13:42:47;13.60;;;12.20;;
44270;SDS011;29963;44.594;11.368;2023-01-24T13:47:48;15.32;;;12.93;;
44270;SDS011;29963;44.594;11.368;2023-01-24T13:50:15;18.60;;;13.27;;
44270;SDS011;29963;44.594;11.368;2023-01-24T13:52:54;11.68;;;10.57;;
44270;SDS011;29963;44.594;11.368;2023-01-24T13:58:32;15.10;;;13.60;;
44270;SDS011;29963;44.594;11.368;2023-01-24T14:00:34;13.27;;;11.80;;
44270;SDS011;29963;44.594;11.368;2023-01-24T14:05:48;14.45;;;11.82;;
44270;SDS011;29963;44.594;11.368;2023-01-24T14:10:46;13.70;;;11.52;;
44270;SDS011;29963;44.594;11.368;2023-01-24T14:16:12;13.00;;;11.63;;
44270;SDS011;29963;44.594;11.368;2023-01-24T14:18:42;14.77;;;11.23;;
44270;SDS011;29963;44.594;11.368;2023-01-24T14:21:19;12.48;;;11.20;;
44270;SDS011;29963;44.594;11.368;2023-01-24T14:24:00;13.93;;;9.90;;
44270;SDS011;29963;44.594;11.368;2023-01-24T14:26:41;13.55;;;11.02;;
44270;SDS011;29963;44.594;11.368;2023-01-24T14:29:10;14.85;;;12.27;;
44270;SDS011;29963;44.594;11.368;2023-01-24T14:31:41;13.43;;;12.02;;
44270;SDS011;29963;44.594;11.368;2023-01-24T14:34:25;12.25;;;11.05;;
44270;SDS011;29963;44.594;11.368;2023-01-24T14:37:09;14.95;;;11.75;;
44270;SDS011;29963;44.594;11.368;2023-01-24T14:39:37;14.00;;;11.07;;
44270;SDS011;29963;44.594;11.368;2023-01-24T14:42:03;12.55;;;11.30;;
44270;SDS011;29963;44.594;11.368;2023-01-24T14:44:37;12.73;;;11.45;;
44270;SDS011;29963;44.594;11.368;2023-01-24T14:49:45;15.23;;;11.30;;
44270;SDS011;29963;44.594;11.368;2023-01-24T14:54:47;12.38;;;11.25;;
44270;SDS011;29963;44.594;11.368;2023-01-24T14:57:19;13.55;;;11.98;;
44270;SDS011;29963;44.594;11.368;2023-01-24T15:02:58;12.45;;;10.88;;
44270;SDS011;29963;44.594;11.368;2023-01-24T15:07:52;13.07;;;11.75;;
44270;SDS011;29963;44.594;11.368;2023-01-24T15:10:22;17.85;;;12.73;;
44270;SDS011;29963;44.594;11.368;2023-01-24T15:12:50;14.13;;;12.63;;
44270;SDS011;29963;44.594;11.368;2023-01-24T15:15:18;13.80;;;12.52;;
44270;SDS011;29963;44.594;11.368;2023-01-24T15:17:45;15.10;;;11.60;;
44270;SDS011;29963;44.594;11.368;2023-01-24T15:20:14;15.68;;;14.00;;
44270;SDS011;29963;44.594;11.368;2023-01-24T15:22:43;14.20;;;12.45;;
44270;SDS011;29963;44.594;11.368;2023-01-24T15:25:19;14.13;;;12.80;;
44270;SDS011;29963;44.594;11.368;2023-01-24T15:27:48;14.55;;;12.73;;
44270;SDS011;29963;44.594;11.368;2023-01-24T15:30:15;14.45;;;13.07;;
44270;SDS011;29963;44.594;11.368;2023-01-24T15:38:26;13.57;;;12.07;;
44270;SDS011;29963;44.594;11.368;2023-01-24T15:43:32;14.48;;;12.90;;
44270;SDS011;29963;44.594;11.368;2023-01-24T15:49:16;14.93;;;13.40;;
44270;SDS011;29963;44.594;11.368;2023-01-24T15:52:12;16.15;;;14.43;;
44270;SDS011;29963;44.594;11.368;2023-01-24T15:55:02;19.30;;;14.63;;
44270;SDS011;29963;44.594;11.368;2023-01-24T15:57:31;21.30;;;14.98;;
44270;SDS011;29963;44.594;11.368;2023-01-24T16:02:32;18.05;;;15.23;;
44270;SDS011;29963;44.594;11.368;2023-01-24T16:04:59;16.30;;;14.57;;
44270;SDS011;29963;44.594;11.368;2023-01-24T16:07:25;18.60;;;15.65;;
44270;SDS011;29963;44.594;11.368;2023-01-24T16:09:51;17.35;;;14.75;;
44270;SDS011;29963;44.594;11.368;2023-01-24T16:12:20;20.00;;;16.02;;
44270;SDS011;29963;44.594;11.368;2023-01-24T16:14:51;16.63;;;14.75;;
44270;SDS011;29963;44.594;11.368;2023-01-24T16:17:21;18.20;;;16.40;;
44270;SDS011;29963;44.594;11.368;2023-01-24T16:19:47;19.38;;;15.00;;
44270;SDS011;29963;44.594;11.368;2023-01-24T16:22:14;18.85;;;14.85;;
44270;SDS011;29963;44.594;11.368;2023-01-24T16:24:40;16.27;;;14.68;;
44270;SDS011;29963;44.594;11.368;2023-01-24T16:27:16;17.63;;;15.82;;
44270;SDS011;29963;44.594;11.368;2023-01-24T16:29:41;18.02;;;16.23;;
44270;SDS011;29963;44.594;11.368;2023-01-24T16:32:12;21.70;;;18.13;;
44270;SDS011;29963;44.594;11.368;2023-01-24T16:34:48;18.67;;;16.70;;
44270;SDS011;29963;44.594;11.368;2023-01-24T16:37:14;18.77;;;16.77;;
44270;SDS011;29963;44.594;11.368;2023-01-24T16:39:40;20.35;;;16.40;;
44270;SDS011;29963;44.594;11.368;2023-01-24T16:42:12;17.75;;;15.85;;
44270;SDS011;29963;44.594;11.368;2023-01-24T16:44:40;24.67;;;17.38;;
44270;SDS011;29963;44.594;11.368;2023-01-24T16:47:06;18.50;;;16.80;;
44270;SDS011;29963;44.594;11.368;2023-01-24T16:49:31;17.75;;;15.90;;
44270;SDS011;29963;44.594;11.368;2023-01-24T16:51:57;22.60;;;18.80;;
44270;SDS011;29963;44.594;11.368;2023-01-24T16:54:23;22.15;;;19.85;;
44270;SDS011;29963;44.594;11.368;2023-01-24T16:56:49;29.63;;;23.27;;
44270;SDS011;29963;44.594;11.368;2023-01-24T16:59:14;32.03;;;27.10;;
44270;SDS011;29963;44.594;11.368;2023-01-24T17:01:40;32.83;;;28.25;;
44270;SDS011;29963;44.594;11.368;2023-01-24T17:04:05;24.60;;;22.17;;
44270;SDS011;29963;44.594;11.368;2023-01-24T17:06:31;21.70;;;19.40;;